createdAt,value
2018-06-08T00:00:53.406Z,99.90
2018-06-08T00:03:22.810Z,99.90
2018-06-08T00:05:51.408Z,99.90
2018-06-08T00:08:19.990Z,99.90
2018-06-08T00:10:48.457Z,99.90
2018-06-08T00:13:17.119Z,99.90
2018-06-08T00:15:45.963Z,99.90
2018-06-08T00:18:14.716Z,99.90
2018-06-08T00:20:43.193Z,99.90
2018-06-08T00:23:11.612Z,99.90
2018-06-08T00:25:40.333Z,99.90
2018-06-08T00:28:09.002Z,99.90
2018-06-08T00:30:37.429Z,99.90
2018-06-08T00:33:05.860Z,99.90
2018-06-08T00:38:02.498Z,99.90
2018-06-08T00:40:30.989Z,99.90
2018-06-08T00:42:59.432Z,99.90
2018-06-08T00:45:27.955Z,99.90
2018-06-08T00:47:56.371Z,99.90
2018-06-08T00:50:24.807Z,99.90
2018-06-08T00:52:53.203Z,99.90
2018-06-08T00:55:21.627Z,99.90
2018-06-08T00:57:50.066Z,99.90
2018-06-08T01:02:46.684Z,99.90
2018-06-08T01:05:16.183Z,99.90
2018-06-08T01:07:44.923Z,99.90
2018-06-08T01:10:13.425Z,99.90
2018-06-08T01:12:41.844Z,99.90
2018-06-08T01:15:10.293Z,99.90
2018-06-08T01:17:38.825Z,99.90
2018-06-08T01:20:07.283Z,99.90
2018-06-08T01:22:35.795Z,99.90
2018-06-08T01:25:04.184Z,99.90
2018-06-08T01:27:32.996Z,99.90
2018-06-08T01:30:01.448Z,99.90
2018-06-08T01:32:29.926Z,99.90
2018-06-08T01:34:58.432Z,99.90
2018-06-08T01:37:27.458Z,99.90
2018-06-08T01:39:55.937Z,99.90
2018-06-08T01:42:24.351Z,99.90
2018-06-08T01:44:52.826Z,99.90
2018-06-08T01:47:21.253Z,99.90
2018-06-08T01:49:49.688Z,99.90
2018-06-08T01:52:18.121Z,99.90
2018-06-08T01:54:46.707Z,99.90
2018-06-08T01:57:15.187Z,99.90
2018-06-08T01:59:43.603Z,99.90
2018-06-08T02:02:12.109Z,99.90
2018-06-08T02:04:40.984Z,99.90
2018-06-08T02:07:09.435Z,99.90
2018-06-08T02:09:38.050Z,99.90
2018-06-08T02:12:06.455Z,99.90
2018-06-08T02:14:34.866Z,99.90
2018-06-08T02:17:03.280Z,99.90
2018-06-08T02:19:31.710Z,99.90
2018-06-08T02:22:00.152Z,99.90
2018-06-08T02:24:28.639Z,99.90
2018-06-08T02:26:57.094Z,99.90
2018-06-08T02:29:25.828Z,99.90
2018-06-08T02:31:54.324Z,99.90
2018-06-08T02:34:22.889Z,99.90
2018-06-08T02:36:51.313Z,99.90
2018-06-08T02:39:19.708Z,99.90
2018-06-08T02:41:48.109Z,99.90
2018-06-08T02:44:16.541Z,99.90
2018-06-08T02:46:45.073Z,99.90
2018-06-08T02:49:13.539Z,99.90
2018-06-08T02:51:42.179Z,99.90
2018-06-08T02:54:11.033Z,99.90
2018-06-08T02:56:39.609Z,99.90
2018-06-08T02:59:08.145Z,99.90
2018-06-08T03:01:36.581Z,99.90
2018-06-08T03:04:05.063Z,99.90
2018-06-08T03:06:33.841Z,99.90
2018-06-08T03:09:02.333Z,99.90
2018-06-08T03:11:30.792Z,99.90
2018-06-08T03:13:59.256Z,99.90
2018-06-08T03:16:27.660Z,99.90
2018-06-08T03:18:56.105Z,99.90
2018-06-08T03:21:24.548Z,99.90
2018-06-08T03:23:52.996Z,99.90
2018-06-08T03:26:22.420Z,99.90
2018-06-08T03:28:50.823Z,99.90
2018-06-08T03:31:19.257Z,99.90
2018-06-08T03:33:48.105Z,99.90
2018-06-08T03:36:16.757Z,99.90
2018-06-08T03:38:45.320Z,99.90
2018-06-08T03:43:41.883Z,99.90
2018-06-08T03:48:38.495Z,99.90
2018-06-08T03:51:07.005Z,99.90
2018-06-08T03:53:35.628Z,99.90
2018-06-08T03:56:04.585Z,99.90
2018-06-08T03:58:33.237Z,99.90
2018-06-08T04:01:18.880Z,99.90
2018-06-08T04:03:54.937Z,99.90
2018-06-08T04:06:23.411Z,99.90
2018-06-08T04:08:52.066Z,99.90
2018-06-08T04:11:20.601Z,99.90
2018-06-08T04:13:49.018Z,99.90
2018-06-08T04:16:17.607Z,99.90
2018-06-08T04:18:46.085Z,99.90
2018-06-08T04:21:14.624Z,99.90
2018-06-08T04:23:43.322Z,99.90
2018-06-08T04:26:11.935Z,99.90
2018-06-08T04:28:40.352Z,99.90
2018-06-08T04:31:08.849Z,99.90
2018-06-08T04:33:37.442Z,99.90
2018-06-08T04:36:05.873Z,99.90
2018-06-08T04:38:34.350Z,99.90
2018-06-08T04:41:02.904Z,99.90
2018-06-08T04:43:32.412Z,99.90
2018-06-08T04:46:01.369Z,99.90
2018-06-08T04:48:29.837Z,99.90
2018-06-08T04:50:58.286Z,99.90
2018-06-08T04:53:26.686Z,99.90
2018-06-08T04:55:55.114Z,99.90
2018-06-08T04:58:23.554Z,99.90
2018-06-08T05:00:52.045Z,99.90
2018-06-08T05:03:20.488Z,99.90
2018-06-08T05:05:48.873Z,99.90
2018-06-08T05:08:17.318Z,99.90
2018-06-08T05:10:45.787Z,99.90
2018-06-08T05:13:14.433Z,99.90
2018-06-08T05:15:42.924Z,99.90
2018-06-08T05:18:11.332Z,99.90
2018-06-08T05:20:39.935Z,99.90
2018-06-08T05:23:08.477Z,99.90
2018-06-08T05:25:36.928Z,99.90
2018-06-08T05:28:05.412Z,99.90
2018-06-08T05:30:33.900Z,99.90
2018-06-08T05:33:02.356Z,99.90
2018-06-08T05:35:31.109Z,99.90
2018-06-08T05:38:00.007Z,99.90
2018-06-08T05:40:28.757Z,99.90
2018-06-08T05:42:58.110Z,99.90
2018-06-08T05:45:26.760Z,99.90
2018-06-08T05:47:55.382Z,99.90
2018-06-08T05:50:23.909Z,99.90
2018-06-08T05:52:52.460Z,99.90
2018-06-08T05:55:20.924Z,99.90
2018-06-08T05:57:49.467Z,99.90
2018-06-08T06:00:18.183Z,99.90
2018-06-08T06:02:46.575Z,99.90
2018-06-08T06:05:15.021Z,99.90
2018-06-08T06:07:43.442Z,99.90
2018-06-08T06:10:12.008Z,99.90
2018-06-08T06:12:40.612Z,99.90
2018-06-08T06:15:09.129Z,99.90
2018-06-08T06:17:37.578Z,99.90
2018-06-08T06:20:07.835Z,99.90
2018-06-08T06:22:36.970Z,99.90
2018-06-08T06:25:06.122Z,99.90
2018-06-08T06:27:34.581Z,99.90
2018-06-08T06:30:03.622Z,99.90
2018-06-08T06:32:32.291Z,99.90
2018-06-08T06:35:00.709Z,99.90
2018-06-08T06:37:29.121Z,99.90
2018-06-08T06:39:57.894Z,99.90
2018-06-08T06:42:26.377Z,99.90
2018-06-08T06:44:54.881Z,99.90
2018-06-08T06:47:23.698Z,99.90
2018-06-08T06:49:52.176Z,99.90
2018-06-08T06:52:20.737Z,99.90
2018-06-08T06:54:49.416Z,99.90
2018-06-08T06:57:18.056Z,99.90
2018-06-08T06:59:46.857Z,99.90
2018-06-08T07:02:15.403Z,99.90
2018-06-08T07:04:44.325Z,99.90
2018-06-08T07:07:12.867Z,99.90
2018-06-08T07:09:41.398Z,99.90
2018-06-08T07:12:10.328Z,99.90
2018-06-08T07:14:38.926Z,99.90
2018-06-08T07:17:07.900Z,99.90
2018-06-08T07:19:36.947Z,99.90
2018-06-08T07:22:05.474Z,99.90
2018-06-08T07:24:34.402Z,99.90
2018-06-08T07:27:03.172Z,99.90
2018-06-08T07:29:31.792Z,99.90
2018-06-08T07:32:00.360Z,99.90
2018-06-08T07:34:29.034Z,99.90
2018-06-08T07:36:58.055Z,99.90
2018-06-08T07:39:27.133Z,99.90
2018-06-08T07:41:55.647Z,99.90
2018-06-08T07:44:24.260Z,99.90
2018-06-08T07:46:52.738Z,99.90
2018-06-08T07:49:21.331Z,99.90
2018-06-08T07:51:49.798Z,99.90
2018-06-08T07:54:18.562Z,99.90
2018-06-08T07:56:47.025Z,99.90
2018-06-08T07:59:15.604Z,99.90
2018-06-08T08:01:44.213Z,99.90
2018-06-08T08:04:12.988Z,99.90
2018-06-08T08:06:41.635Z,99.90
2018-06-08T08:09:10.760Z,99.90
2018-06-08T08:11:40.312Z,99.90
2018-06-08T08:14:09.665Z,99.90
2018-06-08T08:16:38.319Z,99.90
2018-06-08T08:19:06.880Z,99.90
2018-06-08T08:21:35.582Z,99.90
2018-06-08T08:24:04.089Z,99.90
2018-06-08T08:26:32.677Z,99.90
2018-06-08T08:29:01.116Z,99.90
2018-06-08T08:31:29.543Z,99.90
2018-06-08T08:33:58.018Z,99.90
2018-06-08T08:36:26.597Z,99.90
2018-06-08T08:38:55.448Z,99.90
2018-06-08T08:41:24.077Z,99.90
2018-06-08T08:43:52.587Z,99.90
2018-06-08T08:46:21.050Z,99.90
2018-06-08T08:48:49.518Z,99.90
2018-06-08T08:51:18.136Z,99.90
2018-06-08T08:56:14.786Z,99.90
2018-06-08T08:58:43.308Z,99.90
2018-06-08T09:01:11.957Z,99.90
2018-06-08T09:03:40.807Z,99.90
2018-06-08T09:06:09.400Z,99.90
2018-06-08T09:08:37.818Z,99.90
2018-06-08T09:11:06.529Z,99.90
2018-06-08T09:13:34.940Z,99.90
2018-06-08T09:16:03.524Z,99.90
2018-06-08T09:18:31.976Z,99.90
2018-06-08T09:21:00.390Z,99.90
2018-06-08T09:23:28.866Z,99.90
2018-06-08T09:25:57.268Z,99.90
2018-06-08T09:28:25.824Z,99.90
2018-06-08T09:30:54.295Z,99.90
2018-06-08T09:33:22.916Z,99.90
2018-06-08T09:35:51.384Z,99.90
2018-06-08T09:38:20.088Z,99.90
2018-06-08T09:40:48.512Z,99.90
2018-06-08T09:43:16.968Z,99.90
2018-06-08T09:45:45.824Z,99.90
2018-06-08T09:48:14.316Z,99.90
2018-06-08T09:50:42.817Z,99.90
2018-06-08T09:53:11.352Z,99.90
2018-06-08T09:55:39.967Z,99.90
2018-06-08T09:58:08.424Z,99.90
2018-06-08T10:00:43.581Z,99.90
2018-06-08T10:03:12.007Z,99.90
2018-06-08T10:05:40.482Z,99.90
2018-06-08T10:08:10.410Z,99.90
2018-06-08T10:10:38.832Z,99.90
2018-06-08T10:13:07.219Z,99.90
2018-06-08T10:15:35.617Z,99.90
2018-06-08T10:18:04.184Z,99.90
2018-06-08T10:20:32.797Z,99.90
2018-06-08T10:23:01.215Z,99.90
2018-06-08T10:25:29.772Z,99.90
2018-06-08T10:27:58.227Z,99.90
2018-06-08T10:30:26.946Z,99.90
2018-06-08T10:32:55.365Z,99.90
2018-06-08T10:35:23.876Z,99.90
2018-06-08T10:37:52.362Z,99.90
2018-06-08T10:40:20.854Z,99.90
2018-06-08T10:42:51.772Z,99.90
2018-06-08T10:45:20.375Z,99.90
2018-06-08T10:47:48.898Z,99.90
2018-06-08T10:50:17.356Z,99.90
2018-06-08T10:52:45.992Z,99.90
2018-06-08T10:55:14.562Z,99.90
2018-06-08T10:57:43.095Z,99.90
2018-06-08T11:00:11.571Z,99.90
2018-06-08T11:02:40.045Z,99.90
2018-06-08T11:05:08.721Z,99.90
2018-06-08T11:07:37.205Z,99.90
2018-06-08T11:10:05.706Z,99.90
2018-06-08T11:12:34.174Z,99.90
2018-06-08T11:15:04.844Z,99.90
2018-06-08T11:17:33.481Z,99.90
2018-06-08T11:20:02.239Z,99.90
2018-06-08T11:22:30.928Z,99.90
2018-06-08T11:24:59.597Z,99.90
2018-06-08T11:27:28.008Z,99.90
2018-06-08T11:29:56.540Z,99.90
2018-06-08T11:32:25.029Z,99.90
2018-06-08T11:34:53.488Z,99.90
2018-06-08T11:37:22.142Z,99.90
2018-06-08T11:39:50.648Z,99.90
2018-06-08T11:42:19.154Z,99.90
2018-06-08T11:44:48.701Z,99.90
2018-06-08T11:47:17.104Z,99.90
2018-06-08T11:49:45.515Z,99.90
2018-06-08T11:52:13.922Z,99.90
2018-06-08T11:54:42.712Z,99.90
2018-06-08T11:57:11.179Z,99.90
2018-06-08T12:02:08.844Z,99.90
2018-06-08T12:04:37.680Z,99.90
2018-06-08T12:07:07.562Z,99.90
2018-06-08T12:09:36.040Z,99.90
2018-06-08T12:12:04.440Z,99.90
2018-06-08T12:14:32.835Z,99.90
2018-06-08T12:17:01.326Z,99.90
2018-06-08T12:19:29.680Z,99.90
2018-06-08T12:21:58.180Z,99.90
2018-06-08T12:24:26.711Z,99.90
2018-06-08T12:26:55.970Z,99.90
2018-06-08T12:29:24.376Z,99.90
2018-06-08T12:31:52.995Z,99.90
2018-06-08T12:34:21.400Z,99.90
2018-06-08T12:36:50.332Z,99.90
2018-06-08T12:39:18.995Z,99.90
2018-06-08T12:41:47.520Z,99.90
2018-06-08T12:44:16.205Z,99.90
2018-06-08T12:46:44.908Z,99.90
2018-06-08T12:49:15.330Z,99.90
2018-06-08T12:51:44.026Z,99.90
2018-06-08T12:54:12.601Z,99.90
2018-06-08T12:56:41.147Z,99.90
2018-06-08T12:59:09.691Z,99.90
2018-06-08T13:01:38.241Z,99.90
2018-06-08T13:04:06.770Z,99.90
2018-06-08T13:06:35.308Z,99.90
2018-06-08T13:09:05.550Z,99.90
2018-06-08T13:11:34.077Z,99.90
2018-06-08T13:14:02.929Z,99.90
2018-06-08T13:16:31.448Z,99.90
2018-06-08T13:18:59.960Z,99.90
2018-06-08T13:21:30.203Z,99.90
2018-06-08T13:23:58.872Z,99.90
2018-06-08T13:26:27.575Z,99.90
2018-06-08T13:28:56.367Z,99.90
2018-06-08T13:31:24.923Z,99.90
2018-06-08T13:33:53.575Z,99.90
2018-06-08T13:36:23.348Z,99.90
2018-06-08T13:38:51.918Z,99.90
2018-06-08T13:41:20.473Z,99.90
2018-06-08T13:43:49.166Z,99.90
2018-06-08T13:46:28.920Z,99.90
2018-06-08T13:51:27.464Z,99.90
2018-06-08T13:53:56.261Z,99.90
2018-06-08T13:56:25.096Z,99.90
2018-06-08T13:58:53.759Z,99.90
2018-06-08T14:01:22.221Z,99.10
2018-06-08T14:03:51.507Z,99.00
2018-06-08T14:06:20.374Z,97.40
2018-06-08T14:08:49.377Z,98.40
2018-06-08T14:11:18.853Z,97.30
2018-06-08T14:13:47.890Z,97.00
2018-06-08T14:16:16.546Z,97.20
2018-06-08T14:18:46.271Z,96.20
2018-06-08T14:21:15.030Z,98.20
2018-06-08T14:23:44.640Z,99.30
2018-06-08T14:26:13.203Z,98.30
2018-06-08T14:31:10.547Z,98.40
2018-06-08T14:33:39.777Z,97.50
2018-06-08T14:36:08.251Z,98.40
2018-06-08T14:38:36.719Z,98.00
2018-06-08T14:41:05.678Z,98.50
2018-06-08T14:43:34.237Z,98.50
2018-06-08T14:46:05.466Z,98.10
2018-06-08T14:48:34.251Z,98.30
2018-06-08T14:51:03.498Z,98.80
2018-06-08T14:53:32.353Z,98.20
2018-06-08T14:56:00.988Z,98.50
2018-06-08T14:58:30.761Z,98.00
2018-06-08T15:00:59.998Z,99.00
2018-06-08T15:03:29.060Z,99.90
2018-06-08T15:05:58.131Z,99.90
2018-06-08T15:08:29.924Z,99.90
2018-06-08T15:10:59.620Z,99.90
2018-06-08T15:13:28.891Z,99.90
2018-06-08T15:15:57.891Z,99.90
2018-06-08T15:18:26.413Z,99.90
2018-06-08T15:20:55.619Z,99.40
2018-06-08T15:23:24.555Z,99.60
2018-06-08T15:25:53.012Z,99.70
2018-06-08T15:28:22.418Z,99.70
2018-06-08T15:30:51.698Z,99.80
2018-06-08T15:33:22.261Z,99.30
2018-06-08T15:35:51.364Z,99.00
2018-06-08T15:38:20.001Z,99.30
2018-06-08T15:40:48.872Z,99.00
2018-06-08T15:43:17.394Z,99.10
2018-06-08T15:45:45.864Z,98.70
2018-06-08T15:48:15.188Z,97.70
2018-06-08T15:50:43.734Z,98.50
2018-06-08T15:53:12.207Z,98.40
2018-06-08T15:55:41.364Z,99.20
2018-06-08T15:58:10.368Z,99.90
2018-06-08T16:00:39.355Z,99.90
2018-06-08T16:03:08.317Z,99.60
2018-06-08T16:05:37.595Z,99.90
2018-06-08T16:08:06.231Z,99.90
2018-06-08T16:10:34.981Z,99.90
2018-06-08T16:13:03.705Z,99.90
2018-06-08T16:15:32.225Z,99.90
2018-06-08T16:18:00.810Z,99.90
2018-06-08T16:20:29.293Z,99.90
2018-06-08T16:22:57.752Z,99.90
2018-06-08T16:25:26.265Z,99.90
2018-06-08T16:27:54.827Z,99.90
2018-06-08T16:30:23.359Z,99.90
2018-06-08T16:32:51.961Z,99.90
2018-06-08T16:35:20.429Z,99.90
2018-06-08T16:37:49.006Z,99.90
2018-06-08T16:40:17.472Z,99.90
2018-06-08T16:42:45.953Z,99.90
2018-06-08T16:45:14.579Z,99.90
2018-06-08T16:47:43.044Z,99.90
2018-06-08T16:50:11.724Z,99.90
2018-06-08T16:55:08.426Z,99.90
2018-06-08T16:57:36.923Z,99.90
2018-06-08T17:00:05.829Z,99.90
2018-06-08T17:02:34.455Z,99.90
2018-06-08T17:05:03.069Z,99.90
2018-06-08T17:07:32.592Z,99.90
2018-06-08T17:10:01.249Z,99.90
2018-06-08T17:12:29.740Z,99.90
2018-06-08T17:14:58.372Z,99.90
2018-06-08T17:17:27.017Z,99.90
2018-06-08T17:19:55.749Z,99.90
2018-06-08T17:22:24.686Z,99.90
2018-06-08T17:24:53.573Z,99.90
2018-06-08T17:27:22.028Z,99.90
2018-06-08T17:29:50.463Z,99.90
2018-06-08T17:32:18.966Z,99.90
2018-06-08T17:34:47.652Z,99.90
2018-06-08T17:37:16.169Z,99.90
2018-06-08T17:39:44.633Z,99.90
2018-06-08T17:42:13.142Z,99.90
2018-06-08T17:44:41.711Z,99.90
2018-06-08T17:47:11.486Z,99.90
2018-06-08T17:49:40.014Z,99.90
2018-06-08T17:52:08.476Z,99.90
2018-06-08T17:54:37.164Z,99.90
2018-06-08T17:57:05.984Z,99.90
2018-06-08T17:59:34.544Z,99.90
2018-06-08T18:02:03.129Z,99.90
2018-06-08T18:04:31.601Z,99.90
2018-06-08T18:07:00.096Z,99.90
2018-06-08T18:09:28.625Z,99.90
2018-06-08T18:11:57.223Z,99.90
2018-06-08T18:14:25.724Z,99.90
2018-06-08T18:16:54.280Z,99.90
2018-06-08T18:19:22.727Z,99.90
2018-06-08T18:21:51.191Z,99.90
2018-06-08T18:24:19.697Z,99.90
2018-06-08T18:26:48.220Z,99.90
2018-06-08T18:29:16.631Z,99.90
2018-06-08T18:31:45.120Z,99.90
2018-06-08T18:34:13.730Z,99.90
2018-06-08T18:36:42.135Z,99.90
2018-06-08T18:39:11.193Z,99.90
2018-06-08T18:41:39.654Z,99.90
2018-06-08T18:44:08.889Z,99.90
2018-06-08T18:46:37.362Z,99.90
2018-06-08T18:49:05.885Z,99.90
2018-06-08T18:51:34.538Z,99.90
2018-06-08T18:54:03.004Z,99.90
2018-06-08T18:56:31.533Z,99.90
2018-06-08T18:59:00.011Z,99.90
2018-06-08T19:01:28.420Z,99.90
2018-06-08T19:04:13.270Z,99.90
2018-06-08T19:06:41.765Z,99.90
2018-06-08T19:09:10.310Z,99.90
2018-06-08T19:11:39.164Z,99.90
2018-06-08T19:14:07.889Z,99.90
2018-06-08T19:16:36.384Z,99.90
2018-06-08T19:19:05.049Z,99.90
2018-06-08T19:21:33.664Z,99.90
2018-06-08T19:24:02.329Z,99.90
2018-06-08T19:26:30.814Z,99.90
2018-06-08T19:28:59.300Z,99.90
2018-06-08T19:31:27.877Z,99.90
2018-06-08T19:33:56.478Z,99.90
2018-06-08T19:36:25.010Z,99.90
2018-06-08T19:38:53.742Z,99.90
2018-06-08T19:41:22.198Z,99.90
2018-06-08T19:43:50.761Z,99.90
2018-06-08T19:46:19.267Z,99.90
2018-06-08T19:48:47.682Z,99.90
2018-06-08T19:51:16.196Z,99.90
2018-06-08T19:53:44.730Z,99.90
2018-06-08T19:56:13.193Z,99.90
2018-06-08T19:58:41.638Z,99.90
2018-06-08T20:01:10.418Z,99.90
2018-06-08T20:03:38.899Z,99.90
2018-06-08T20:06:07.367Z,99.90
2018-06-08T20:08:35.900Z,99.90
2018-06-08T20:11:04.809Z,99.90
2018-06-08T20:13:33.765Z,99.90
2018-06-08T20:16:02.378Z,99.90
2018-06-08T20:18:30.878Z,99.90
2018-06-08T20:20:59.362Z,99.90
2018-06-08T20:23:34.691Z,99.90
2018-06-08T20:26:03.257Z,99.90
2018-06-08T20:28:32.710Z,99.90
2018-06-08T20:31:01.321Z,99.90
2018-06-08T20:33:29.849Z,99.90
2018-06-08T20:38:26.435Z,99.90
2018-06-08T20:40:55.031Z,99.90
2018-06-08T20:43:23.573Z,99.90
2018-06-08T20:45:52.297Z,99.90
2018-06-08T20:48:21.014Z,99.90
2018-06-08T20:50:49.674Z,99.90
2018-06-08T20:53:18.102Z,99.90
2018-06-08T20:55:47.019Z,99.90
2018-06-08T20:58:23.334Z,99.90
2018-06-08T21:00:51.721Z,99.90
2018-06-08T21:03:20.284Z,99.90
2018-06-08T21:05:49.024Z,99.90
2018-06-08T21:08:17.488Z,99.90
2018-06-08T21:10:46.632Z,99.90
2018-06-08T21:13:15.211Z,99.90
2018-06-08T21:15:43.666Z,99.90
2018-06-08T21:18:12.116Z,99.90
2018-06-08T21:20:40.841Z,99.90
2018-06-08T21:23:09.452Z,99.90
2018-06-08T21:25:38.237Z,99.90
2018-06-08T21:28:07.130Z,99.90
2018-06-08T21:30:35.699Z,99.90
2018-06-08T21:33:04.140Z,99.90
2018-06-08T21:35:33.105Z,99.90
2018-06-08T21:38:01.533Z,99.90
2018-06-08T21:40:29.986Z,99.90
2018-06-08T21:42:58.484Z,99.90
2018-06-08T21:45:27.885Z,99.90
2018-06-08T21:47:56.510Z,99.90
2018-06-08T21:50:24.985Z,99.90
2018-06-08T21:52:53.651Z,99.90
2018-06-08T21:55:22.143Z,99.90
2018-06-08T21:57:50.587Z,99.90
2018-06-08T22:00:19.261Z,99.90
2018-06-08T22:02:47.712Z,99.90
2018-06-08T22:05:16.269Z,99.90
2018-06-08T22:07:44.721Z,99.90
2018-06-08T22:10:13.194Z,99.90
2018-06-08T22:12:41.676Z,99.90
2018-06-08T22:15:10.130Z,99.90
2018-06-08T22:17:38.553Z,99.90
2018-06-08T22:20:07.022Z,99.90
2018-06-08T22:22:35.594Z,99.90
2018-06-08T22:25:04.064Z,99.90
2018-06-08T22:27:32.509Z,99.90
2018-06-08T22:30:00.979Z,99.90
2018-06-08T22:32:29.446Z,99.90
2018-06-08T22:34:57.923Z,99.90
2018-06-08T22:37:26.468Z,99.90
2018-06-08T22:39:54.927Z,99.90
2018-06-08T22:42:23.548Z,99.90
2018-06-08T22:44:51.976Z,99.90
2018-06-08T22:47:20.407Z,99.90
2018-06-08T22:49:48.838Z,99.90
2018-06-08T22:52:17.276Z,99.90
2018-06-08T22:54:46.482Z,99.90
2018-06-08T22:57:15.067Z,99.90
2018-06-08T22:59:43.580Z,99.90
2018-06-08T23:02:12.063Z,99.90
2018-06-08T23:04:40.489Z,99.90
2018-06-08T23:07:09.001Z,99.90
2018-06-08T23:09:37.486Z,99.90
2018-06-08T23:12:05.961Z,99.90
2018-06-08T23:14:34.399Z,99.90
2018-06-08T23:17:03.164Z,99.90
2018-06-08T23:19:31.553Z,99.90
2018-06-08T23:22:00.010Z,99.90
2018-06-08T23:24:30.828Z,99.90
2018-06-08T23:26:59.252Z,99.90
2018-06-08T23:29:27.667Z,99.90
2018-06-08T23:31:56.255Z,99.90
2018-06-08T23:34:24.683Z,99.90
2018-06-08T23:36:53.107Z,99.90
2018-06-08T23:39:21.525Z,99.90
2018-06-08T23:41:50.033Z,99.90
2018-06-08T23:44:18.471Z,99.90
2018-06-08T23:46:47.008Z,99.90
2018-06-08T23:49:15.512Z,99.90
2018-06-08T23:51:44.100Z,99.90
2018-06-08T23:54:12.689Z,99.90
2018-06-08T23:56:41.234Z,99.90
2018-06-08T23:59:09.728Z,99.90
